createdAt,value
2023-05-12T00:01:21.840Z,66.24
2023-05-12T00:04:08.930Z,65.62
2023-05-12T00:06:56.259Z,66.38
2023-05-12T00:09:43.293Z,66.23
2023-05-12T00:12:30.230Z,65.84
2023-05-12T00:15:17.257Z,66.37
2023-05-12T00:18:04.367Z,66.44
2023-05-12T00:20:51.380Z,66.55
2023-05-12T00:23:38.424Z,65.77
2023-05-12T00:26:25.443Z,66.64
2023-05-12T00:29:12.722Z,65.96
2023-05-12T00:31:59.795Z,66.39
2023-05-12T00:34:47.647Z,66.61
2023-05-12T00:37:34.686Z,66.63
2023-05-12T00:40:21.957Z,66.95
2023-05-12T00:43:09.301Z,66.30
2023-05-12T00:45:56.777Z,66.60
2023-05-12T00:48:44.306Z,66.72
2023-05-12T00:51:32.369Z,67.03
2023-05-12T00:54:19.472Z,67.07
2023-05-12T00:57:06.426Z,66.65
2023-05-12T00:59:53.921Z,67.15
2023-05-12T01:02:41.871Z,66.76
2023-05-12T01:05:29.594Z,67.04
2023-05-12T01:08:19.845Z,66.98
2023-05-12T01:11:07.485Z,66.66
2023-05-12T01:13:54.686Z,66.80
2023-05-12T01:16:46.428Z,67.01
2023-05-12T01:19:53.009Z,66.66
2023-05-12T01:22:40.204Z,67.00
2023-05-12T01:25:30.577Z,66.97
2023-05-12T01:28:18.068Z,67.56
2023-05-12T01:31:05.877Z,67.10
2023-05-12T01:33:54.848Z,66.86
2023-05-12T01:36:41.977Z,67.13
2023-05-12T01:39:28.978Z,67.45
2023-05-12T01:42:16.634Z,66.76
2023-05-12T01:45:03.878Z,66.96
2023-05-12T01:47:51.579Z,67.38
2023-05-12T01:50:38.603Z,67.11
2023-05-12T01:53:30.775Z,66.80
2023-05-12T01:56:17.798Z,66.90
2023-05-12T01:59:05.544Z,67.47
2023-05-12T02:01:52.913Z,67.44
2023-05-12T02:04:47.117Z,67.43
2023-05-12T02:07:35.676Z,67.72
2023-05-12T02:10:22.895Z,67.53
2023-05-12T02:13:09.999Z,67.42
2023-05-12T02:15:57.328Z,67.78
2023-05-12T02:18:44.405Z,67.55
2023-05-12T02:21:31.881Z,67.97
2023-05-12T02:24:19.532Z,67.69
2023-05-12T02:27:06.758Z,68.20
2023-05-12T02:29:54.014Z,68.20
2023-05-12T02:32:42.039Z,68.30
2023-05-12T02:35:29.735Z,68.03
2023-05-12T02:38:16.648Z,68.17
2023-05-12T02:41:03.701Z,68.12
2023-05-12T02:43:50.587Z,68.47
2023-05-12T02:46:38.308Z,68.17
2023-05-12T02:49:25.491Z,68.15
2023-05-12T02:52:12.606Z,68.02
2023-05-12T02:54:59.634Z,68.31
2023-05-12T02:57:46.959Z,68.62
2023-05-12T03:00:34.423Z,68.26
2023-05-12T03:03:01.740Z,68.45
2023-05-12T03:05:48.689Z,68.42
2023-05-12T03:08:36.108Z,68.73
2023-05-12T03:11:23.371Z,68.76
2023-05-12T03:14:10.667Z,69.04
2023-05-12T03:16:57.967Z,68.20
2023-05-12T03:19:45.145Z,68.48
2023-05-12T03:22:34.035Z,68.31
2023-05-12T03:25:21.208Z,68.46
2023-05-12T03:28:08.100Z,68.38
2023-05-12T03:30:55.255Z,69.01
2023-05-12T03:33:43.556Z,68.81
2023-05-12T03:36:30.647Z,69.10
2023-05-12T03:39:17.602Z,69.23
2023-05-12T03:42:04.776Z,68.97
2023-05-12T03:44:51.767Z,69.15
2023-05-12T03:47:38.995Z,69.01
2023-05-12T03:50:27.642Z,69.06
2023-05-12T03:53:14.800Z,68.78
2023-05-12T03:56:01.926Z,68.50
2023-05-12T03:58:49.094Z,68.27
2023-05-12T04:01:37.362Z,68.32
2023-05-12T04:04:24.586Z,68.50
2023-05-12T04:07:11.547Z,69.25
2023-05-12T04:09:58.780Z,68.37
2023-05-12T04:12:45.704Z,69.02
2023-05-12T04:15:33.139Z,69.28
2023-05-12T04:18:20.251Z,69.07
2023-05-12T04:21:07.344Z,68.26
2023-05-12T04:23:54.411Z,68.61
2023-05-12T04:26:44.918Z,68.49
2023-05-12T04:29:32.270Z,68.31
2023-05-12T04:32:19.414Z,66.99
2023-05-12T04:35:06.573Z,66.93
2023-05-12T04:37:53.923Z,67.15
2023-05-12T04:40:42.167Z,66.05
2023-05-12T04:46:20.821Z,66.45
2023-05-12T04:49:08.976Z,66.03
2023-05-12T04:51:55.987Z,65.74
2023-05-12T04:54:43.039Z,64.82
2023-05-12T04:57:30.229Z,65.59
2023-05-12T05:00:17.592Z,64.56
2023-05-12T05:03:06.051Z,63.96
2023-05-12T05:05:53.571Z,63.99
2023-05-12T05:08:40.744Z,64.35
2023-05-12T05:11:27.846Z,63.31
2023-05-12T05:14:14.826Z,63.90
2023-05-12T05:17:02.144Z,62.79
2023-05-12T05:19:57.867Z,62.47
2023-05-12T05:22:48.997Z,62.75
2023-05-12T05:25:36.212Z,61.70
2023-05-12T05:28:23.246Z,61.99
2023-05-12T05:31:10.232Z,61.48
2023-05-12T05:33:57.720Z,60.54
2023-05-12T05:36:48.801Z,60.78
2023-05-12T05:39:36.258Z,60.83
2023-05-12T05:42:23.302Z,61.15
2023-05-12T05:45:10.490Z,59.82
2023-05-12T05:47:58.362Z,59.23
2023-05-12T05:50:46.229Z,58.63
2023-05-12T05:53:33.380Z,58.56
2023-05-12T05:56:20.648Z,59.15
2023-05-12T05:59:07.650Z,58.31
2023-05-12T06:01:55.002Z,58.45
2023-05-12T06:04:42.272Z,57.62
2023-05-12T06:07:29.393Z,57.18
2023-05-12T06:10:16.323Z,57.24
2023-05-12T06:13:03.554Z,56.88
2023-05-12T06:15:50.466Z,56.48
2023-05-12T06:18:38.095Z,56.11
2023-05-12T06:21:26.005Z,55.66
2023-05-12T06:24:12.996Z,55.70
2023-05-12T06:27:02.070Z,54.71
2023-05-12T06:29:49.231Z,54.96
2023-05-12T06:32:36.299Z,54.64
2023-05-12T06:35:23.541Z,54.70
2023-05-12T06:38:10.858Z,54.15
2023-05-12T06:40:57.859Z,53.99
2023-05-12T06:43:44.855Z,53.61
2023-05-12T06:46:33.863Z,53.39
2023-05-12T06:49:20.760Z,53.18
2023-05-12T06:52:07.804Z,52.82
2023-05-12T06:54:54.785Z,52.41
2023-05-12T06:57:41.761Z,52.46
2023-05-12T07:00:29.286Z,51.95
2023-05-12T07:03:16.421Z,51.57
2023-05-12T07:06:03.673Z,51.55
2023-05-12T07:08:50.808Z,51.33
2023-05-12T07:11:37.876Z,50.54
2023-05-12T07:14:25.163Z,50.26
2023-05-12T07:17:12.161Z,50.25
2023-05-12T07:19:59.134Z,49.58
2023-05-12T07:22:46.190Z,49.38
2023-05-12T07:25:33.346Z,49.26
2023-05-12T07:28:20.629Z,48.78
2023-05-12T07:31:07.675Z,48.55
2023-05-12T07:33:55.841Z,48.41
2023-05-12T07:36:23.223Z,48.61
2023-05-12T07:38:50.402Z,48.67
2023-05-12T07:41:37.406Z,48.70
2023-05-12T07:44:24.628Z,48.36
2023-05-12T07:47:11.563Z,48.38
2023-05-12T07:49:58.586Z,48.06
2023-05-12T07:52:45.515Z,48.33
2023-05-12T07:55:32.908Z,47.89
2023-05-12T07:58:20.240Z,47.87
2023-05-12T08:01:07.255Z,47.26
2023-05-12T08:03:55.306Z,47.37
2023-05-12T08:06:42.340Z,47.52
2023-05-12T08:09:29.307Z,47.25
2023-05-12T08:12:16.285Z,47.31
2023-05-12T08:15:03.388Z,46.40
2023-05-12T08:17:50.432Z,46.81
2023-05-12T08:20:37.402Z,46.53
2023-05-12T08:23:24.615Z,46.73
2023-05-12T08:26:11.810Z,47.09
2023-05-12T08:28:58.849Z,46.43
2023-05-12T08:31:45.757Z,46.68
2023-05-12T08:34:32.825Z,47.02
2023-05-12T08:37:20.565Z,46.32
2023-05-12T08:40:07.807Z,46.16
2023-05-12T08:43:03.591Z,46.78
2023-05-12T08:45:50.888Z,46.49
2023-05-12T08:48:39.989Z,46.38
2023-05-12T08:51:31.514Z,45.94
2023-05-12T08:54:19.069Z,46.48
2023-05-12T08:57:10.309Z,45.79
2023-05-12T08:59:59.760Z,46.05
2023-05-12T09:02:54.030Z,46.10
2023-05-12T09:05:42.823Z,46.19
2023-05-12T09:08:30.881Z,45.60
2023-05-12T09:11:18.691Z,45.78
2023-05-12T09:14:14.659Z,46.10
2023-05-12T09:17:04.788Z,45.65
2023-05-12T09:19:51.848Z,45.47
2023-05-12T09:22:39.336Z,44.59
2023-05-12T09:25:40.226Z,44.77
2023-05-12T09:28:27.337Z,44.86
2023-05-12T09:31:14.823Z,44.31
2023-05-12T09:34:01.909Z,44.65
2023-05-12T09:36:48.901Z,44.04
2023-05-12T09:39:37.511Z,42.53
2023-05-12T09:42:30.484Z,43.32
2023-05-12T09:45:23.377Z,42.88
2023-05-12T09:48:10.606Z,43.00
2023-05-12T09:51:09.184Z,42.15
2023-05-12T09:53:42.693Z,41.38
2023-05-12T09:56:10.866Z,41.11
2023-05-12T09:58:42.256Z,41.08
2023-05-12T10:01:21.942Z,40.88
2023-05-12T10:03:57.557Z,41.07
2023-05-12T10:06:30.398Z,40.81
2023-05-12T10:09:09.264Z,40.69
2023-05-12T10:11:36.948Z,40.21
2023-05-12T10:14:05.161Z,40.01
2023-05-12T10:16:33.708Z,39.67
2023-05-12T10:19:01.777Z,39.55
2023-05-12T10:21:29.035Z,38.84
2023-05-12T10:23:57.086Z,38.99
2023-05-12T10:26:24.690Z,38.79
2023-05-12T10:28:52.987Z,38.36
2023-05-12T10:31:22.397Z,38.15
2023-05-12T10:33:57.841Z,38.03
2023-05-12T10:36:25.157Z,37.88
2023-05-12T10:38:52.646Z,37.63
2023-05-12T10:41:34.228Z,37.62
2023-05-12T10:44:01.519Z,37.45
2023-05-12T10:46:28.707Z,37.01
2023-05-12T10:48:56.705Z,36.51
2023-05-12T10:51:51.313Z,37.16
2023-05-12T10:54:24.985Z,36.63
2023-05-12T10:56:53.566Z,36.34
2023-05-12T10:59:24.129Z,35.79
2023-05-12T11:02:06.979Z,35.59
2023-05-12T11:04:42.757Z,35.07
2023-05-12T11:07:12.214Z,35.13
2023-05-12T11:09:56.657Z,34.83
2023-05-12T11:12:27.342Z,34.59
2023-05-12T11:14:54.830Z,34.39
2023-05-12T11:17:21.932Z,34.64
2023-05-12T11:20:10.715Z,34.18
2023-05-12T11:23:00.817Z,34.71
2023-05-12T11:25:48.007Z,34.53
2023-05-12T11:28:35.043Z,34.24
2023-05-12T11:31:22.201Z,34.50
2023-05-12T11:34:12.981Z,34.28
2023-05-12T11:37:01.869Z,34.53
2023-05-12T11:39:52.582Z,34.61
2023-05-12T11:42:39.569Z,34.57
2023-05-12T11:45:27.040Z,34.48
2023-05-12T11:48:26.716Z,34.45
2023-05-12T11:51:13.776Z,34.40
2023-05-12T11:54:01.078Z,33.83
2023-05-12T11:56:48.319Z,33.96
2023-05-12T11:59:46.448Z,34.41
2023-05-12T12:02:40.468Z,33.88
2023-05-12T12:05:37.290Z,34.57
2023-05-12T12:08:28.342Z,34.32
2023-05-12T12:11:15.488Z,34.72
2023-05-12T12:14:08.743Z,34.62
2023-05-12T12:16:55.700Z,34.66
2023-05-12T12:19:42.821Z,34.17
2023-05-12T12:22:29.872Z,33.84
2023-05-12T12:25:17.131Z,33.98
2023-05-12T12:28:04.137Z,33.40
2023-05-12T12:30:51.430Z,33.27
2023-05-12T12:33:38.433Z,33.16
2023-05-12T12:36:25.802Z,33.37
2023-05-12T12:39:12.774Z,33.55
2023-05-12T12:42:00.036Z,34.02
2023-05-12T12:44:47.173Z,34.26
2023-05-12T12:47:34.171Z,33.76
2023-05-12T12:50:21.211Z,33.77
2023-05-12T12:53:08.236Z,33.94
2023-05-12T12:55:55.499Z,34.10
2023-05-12T12:58:42.500Z,34.07
2023-05-12T13:01:29.831Z,34.48
2023-05-12T13:04:17.116Z,34.90
2023-05-12T13:07:04.053Z,34.80
2023-05-12T13:09:51.008Z,35.09
2023-05-12T13:12:37.962Z,35.05
2023-05-12T13:15:25.871Z,35.20
2023-05-12T13:18:13.060Z,35.13
2023-05-12T13:21:00.443Z,35.15
2023-05-12T13:23:47.442Z,35.60
2023-05-12T13:26:34.543Z,35.59
2023-05-12T13:29:21.500Z,35.87
2023-05-12T13:32:08.631Z,35.92
2023-05-12T13:34:55.725Z,35.89
2023-05-12T13:37:42.834Z,35.93
2023-05-12T13:40:30.189Z,35.86
2023-05-12T13:43:17.165Z,36.21
2023-05-12T13:46:04.216Z,36.40
2023-05-12T13:48:51.329Z,36.36
2023-05-12T13:51:39.436Z,36.10
2023-05-12T13:54:26.544Z,36.57
2023-05-12T13:57:13.800Z,36.88
2023-05-12T14:00:00.832Z,36.66
2023-05-12T14:02:47.840Z,36.28
2023-05-12T14:05:35.267Z,35.86
2023-05-12T14:08:22.335Z,36.18
2023-05-12T14:11:09.376Z,36.24
2023-05-12T14:13:56.412Z,36.29
2023-05-12T14:16:43.637Z,36.17
2023-05-12T14:19:30.558Z,36.43
2023-05-12T14:22:25.332Z,36.46
2023-05-12T14:25:13.584Z,36.55
2023-05-12T14:28:00.626Z,36.97
2023-05-12T14:30:47.677Z,36.68
2023-05-12T14:33:34.695Z,36.78
2023-05-12T14:36:21.778Z,36.88
2023-05-12T14:39:08.715Z,36.40
2023-05-12T14:41:55.718Z,36.49
2023-05-12T14:44:42.691Z,36.27
2023-05-12T14:47:29.804Z,35.54
2023-05-12T14:50:16.889Z,35.80
2023-05-12T14:53:03.874Z,35.09
2023-05-12T14:55:51.496Z,35.64
2023-05-12T14:58:41.329Z,35.83
2023-05-12T15:01:28.334Z,35.93
2023-05-12T15:04:15.591Z,36.06
2023-05-12T15:07:02.576Z,35.84
2023-05-12T15:09:49.509Z,36.21
2023-05-12T15:12:36.383Z,36.12
2023-05-12T15:15:23.498Z,36.61
2023-05-12T15:18:10.612Z,36.61
2023-05-12T15:20:58.085Z,36.78
2023-05-12T15:23:45.003Z,36.98
2023-05-12T15:26:34.159Z,36.75
2023-05-12T15:29:22.859Z,37.69
2023-05-12T15:32:09.961Z,37.67
2023-05-12T15:34:57.048Z,37.61
2023-05-12T15:37:44.272Z,37.57
2023-05-12T15:40:31.544Z,37.76
2023-05-12T15:43:18.554Z,37.61
2023-05-12T15:46:05.533Z,37.81
2023-05-12T15:48:52.576Z,38.05
2023-05-12T15:51:39.568Z,37.81
2023-05-12T15:54:26.650Z,38.17
2023-05-12T15:57:13.592Z,38.20
2023-05-12T16:00:00.594Z,38.19
2023-05-12T16:02:47.957Z,38.36
2023-05-12T16:05:35.091Z,38.24
2023-05-12T16:08:22.208Z,38.21
2023-05-12T16:11:09.174Z,38.51
2023-05-12T16:13:56.327Z,38.48
2023-05-12T16:16:43.293Z,38.11
2023-05-12T16:19:30.518Z,38.21
2023-05-12T16:22:17.525Z,38.64
2023-05-12T16:25:04.527Z,38.40
2023-05-12T16:27:51.767Z,39.15
2023-05-12T16:30:38.786Z,38.97
2023-05-12T16:33:25.686Z,38.67
2023-05-12T16:36:12.905Z,39.35
2023-05-12T16:38:59.860Z,38.86
2023-05-12T16:41:46.982Z,39.24
2023-05-12T16:44:34.254Z,39.44
2023-05-12T16:47:21.257Z,39.34
2023-05-12T16:50:12.385Z,39.62
2023-05-12T16:52:59.485Z,39.76
2023-05-12T16:55:46.445Z,40.04
2023-05-12T16:58:33.486Z,40.56
2023-05-12T17:01:21.250Z,40.35
2023-05-12T17:04:08.588Z,40.25
2023-05-12T17:06:55.728Z,40.38
2023-05-12T17:09:42.752Z,40.40
2023-05-12T17:12:29.790Z,41.01
2023-05-12T17:15:16.782Z,41.23
2023-05-12T17:18:03.884Z,41.05
2023-05-12T17:20:51.332Z,41.52
2023-05-12T17:23:38.380Z,41.94
2023-05-12T17:26:25.358Z,41.82
2023-05-12T17:29:12.426Z,41.62
2023-05-12T17:31:59.455Z,42.24
2023-05-12T17:34:46.536Z,42.52
2023-05-12T17:37:33.534Z,42.21
2023-05-12T17:40:20.779Z,42.19
2023-05-12T17:43:08.141Z,41.94
2023-05-12T17:45:55.284Z,41.79
2023-05-12T17:48:45.233Z,42.04
2023-05-12T17:51:32.346Z,42.10
2023-05-12T17:54:19.507Z,41.69
2023-05-12T17:57:07.318Z,42.36
2023-05-12T17:59:54.471Z,42.59
2023-05-12T18:02:41.567Z,42.93
2023-05-12T18:05:29.048Z,42.40
2023-05-12T18:08:16.137Z,43.06
2023-05-12T18:11:03.508Z,42.96
2023-05-12T18:13:50.447Z,43.15
2023-05-12T18:16:37.599Z,42.99
2023-05-12T18:19:24.580Z,43.33
2023-05-12T18:22:14.630Z,43.50
2023-05-12T18:25:01.697Z,43.96
2023-05-12T18:27:48.758Z,43.54
2023-05-12T18:30:36.119Z,44.39
2023-05-12T18:33:23.058Z,44.65
2023-05-12T18:36:10.090Z,44.44
2023-05-12T18:38:56.964Z,44.91
2023-05-12T18:41:43.878Z,44.64
2023-05-12T18:44:30.798Z,45.23
2023-05-12T18:47:17.795Z,45.92
2023-05-12T18:50:04.674Z,46.09
2023-05-12T18:52:51.885Z,45.71
2023-05-12T18:55:38.834Z,46.27
2023-05-12T18:58:25.960Z,46.47
2023-05-12T19:01:13.388Z,46.73
2023-05-12T19:04:00.346Z,46.50
2023-05-12T19:06:47.488Z,46.44
2023-05-12T19:09:34.713Z,47.05
2023-05-12T19:12:22.132Z,46.94
2023-05-12T19:15:09.322Z,47.05
2023-05-12T19:17:56.393Z,47.36
2023-05-12T19:20:43.579Z,47.35
2023-05-12T19:23:30.509Z,47.82
2023-05-12T19:26:18.299Z,48.07
2023-05-12T19:29:05.254Z,48.08
2023-05-12T19:31:52.328Z,48.49
2023-05-12T19:34:39.479Z,48.56
2023-05-12T19:37:26.505Z,48.48
2023-05-12T19:40:13.672Z,49.24
2023-05-12T19:43:00.974Z,49.19
2023-05-12T19:45:48.932Z,48.83
2023-05-12T19:48:35.998Z,49.31
2023-05-12T19:51:22.999Z,49.79
2023-05-12T19:54:10.080Z,50.00
2023-05-12T19:56:57.146Z,50.18
2023-05-12T19:59:44.252Z,50.19
2023-05-12T20:02:34.081Z,50.47
2023-05-12T20:05:21.565Z,50.84
2023-05-12T20:08:08.908Z,50.70
